createdAt,value
2019-01-08T00:01:03.172Z,7.38
2019-01-08T00:03:52.789Z,7.40
2019-01-08T00:06:42.758Z,7.45
2019-01-08T00:09:32.692Z,7.40
2019-01-08T00:12:22.677Z,7.43
2019-01-08T00:15:12.143Z,7.43
2019-01-08T00:18:01.563Z,7.41
2019-01-08T00:20:51.422Z,7.38
2019-01-08T00:23:41.514Z,7.45
2019-01-08T00:26:31.808Z,7.40
2019-01-08T00:29:21.563Z,7.39
2019-01-08T00:32:11.382Z,7.41
2019-01-08T00:35:01.418Z,7.41
2019-01-08T00:37:50.892Z,7.38
2019-01-08T00:40:41.343Z,7.38
2019-01-08T00:43:31.487Z,7.36
2019-01-08T00:46:20.983Z,7.32
2019-01-08T00:49:11.276Z,7.34
2019-01-08T00:52:01.409Z,7.36
2019-01-08T00:54:51.379Z,7.35
2019-01-08T00:57:41.431Z,7.41
2019-01-08T01:00:31.507Z,7.43
2019-01-08T01:03:21.549Z,7.46
2019-01-08T01:06:11.687Z,7.43
2019-01-08T01:09:01.567Z,7.43
2019-01-08T01:11:53.207Z,7.38
2019-01-08T01:14:42.951Z,7.42
2019-01-08T01:17:32.862Z,7.41
2019-01-08T01:20:22.424Z,7.44
2019-01-08T01:23:12.233Z,7.45
2019-01-08T01:26:02.373Z,7.41
2019-01-08T01:28:59.720Z,7.44
2019-01-08T01:31:43.475Z,7.46
2019-01-08T01:34:33.543Z,7.47
2019-01-08T01:37:23.085Z,7.50
2019-01-08T01:40:13.032Z,7.45
2019-01-08T01:43:02.758Z,7.44
2019-01-08T01:45:52.592Z,7.45
2019-01-08T01:48:42.530Z,7.39
2019-01-08T01:51:32.089Z,7.44
2019-01-08T01:54:22.712Z,7.42
2019-01-08T01:57:12.717Z,7.40
2019-01-08T02:00:02.398Z,7.40
2019-01-08T02:02:54.423Z,7.40
2019-01-08T02:05:44.502Z,7.44
2019-01-08T02:08:34.533Z,7.43
2019-01-08T02:11:24.335Z,7.43
2019-01-08T02:14:14.155Z,7.46
2019-01-08T02:17:03.959Z,7.51
2019-01-08T02:19:54.170Z,7.52
2019-01-08T02:22:44.045Z,7.53
2019-01-08T02:25:34.265Z,7.50
2019-01-08T02:28:24.254Z,7.50
2019-01-08T02:31:14.287Z,7.55
2019-01-08T02:34:04.423Z,7.52
2019-01-08T02:36:54.123Z,7.56
2019-01-08T02:39:44.216Z,7.60
2019-01-08T02:42:34.090Z,7.60
2019-01-08T02:45:24.176Z,7.58
2019-01-08T02:48:14.330Z,7.61
2019-01-08T02:51:04.234Z,7.62
2019-01-08T02:53:54.457Z,7.66
2019-01-08T02:56:44.520Z,7.68
2019-01-08T02:59:34.218Z,7.72
2019-01-08T03:02:24.055Z,7.75
2019-01-08T03:05:13.944Z,7.73
2019-01-08T03:08:04.169Z,7.75
2019-01-08T03:10:53.600Z,7.80
2019-01-08T03:13:43.521Z,7.82
2019-01-08T03:16:33.422Z,7.87
2019-01-08T03:19:23.177Z,7.87
2019-01-08T03:22:13.255Z,7.96
2019-01-08T03:25:02.850Z,7.98
2019-01-08T03:27:52.937Z,7.95
2019-01-08T03:30:42.991Z,7.97
2019-01-08T03:33:32.824Z,7.99
2019-01-08T03:36:24.898Z,7.99
2019-01-08T03:39:15.421Z,8.00
2019-01-08T03:42:05.432Z,8.04
2019-01-08T03:44:55.798Z,8.11
2019-01-08T03:47:45.933Z,8.14
2019-01-08T03:50:36.230Z,8.12
2019-01-08T03:53:25.793Z,8.14
2019-01-08T03:56:15.308Z,8.14
2019-01-08T03:59:05.149Z,8.17
2019-01-08T04:01:54.935Z,8.23
2019-01-08T04:04:45.106Z,8.22
2019-01-08T04:07:35.061Z,8.21
2019-01-08T04:10:25.191Z,8.14
2019-01-08T04:13:14.408Z,8.16
2019-01-08T04:16:03.919Z,8.17
2019-01-08T04:18:54.050Z,8.18
2019-01-08T04:21:43.801Z,8.09
2019-01-08T04:24:33.435Z,8.04
2019-01-08T04:27:23.958Z,8.00
2019-01-08T04:30:13.471Z,8.01
2019-01-08T04:33:03.242Z,8.05
2019-01-08T04:35:52.953Z,8.04
2019-01-08T04:38:43.069Z,8.08
2019-01-08T04:41:33.086Z,8.09
2019-01-08T04:44:22.139Z,8.08
2019-01-08T04:47:12.523Z,8.08
2019-01-08T04:50:02.195Z,8.09
2019-01-08T04:52:52.263Z,8.05
2019-01-08T04:55:42.072Z,8.09
2019-01-08T04:58:31.582Z,8.16
2019-01-08T05:01:21.739Z,8.19
2019-01-08T05:04:11.915Z,8.25
2019-01-08T05:07:01.567Z,8.27
2019-01-08T05:09:51.535Z,8.28
2019-01-08T05:12:41.495Z,8.28
2019-01-08T05:15:31.258Z,8.27
2019-01-08T05:18:21.273Z,8.27
2019-01-08T05:21:11.455Z,8.34
2019-01-08T05:24:01.215Z,8.37
2019-01-08T05:26:51.025Z,8.35
2019-01-08T05:29:40.840Z,8.40
2019-01-08T05:32:30.823Z,8.40
2019-01-08T05:35:20.879Z,8.42
2019-01-08T05:38:10.906Z,8.33
2019-01-08T05:41:00.692Z,8.30
2019-01-08T05:43:50.206Z,8.20
2019-01-08T05:46:39.918Z,8.24
2019-01-08T05:49:29.837Z,8.24
2019-01-08T05:52:20.186Z,8.27
2019-01-08T05:55:10.450Z,8.22
2019-01-08T05:58:00.412Z,8.13
2019-01-08T06:00:50.311Z,8.05
2019-01-08T06:03:40.395Z,8.03
2019-01-08T06:06:29.970Z,7.95
2019-01-08T06:09:19.898Z,7.95
2019-01-08T06:12:09.748Z,7.97
2019-01-08T06:14:59.572Z,7.98
2019-01-08T06:17:49.640Z,7.96
2019-01-08T06:20:39.936Z,8.00
2019-01-08T06:23:29.299Z,8.00
2019-01-08T06:26:19.413Z,8.01
2019-01-08T06:29:09.495Z,8.00
2019-01-08T06:31:59.719Z,8.03
2019-01-08T06:34:49.944Z,8.02
2019-01-08T06:37:39.710Z,8.03
2019-01-08T06:40:29.829Z,8.04
2019-01-08T06:43:19.798Z,8.07
2019-01-08T06:46:09.867Z,8.14
2019-01-08T06:48:59.869Z,8.12
2019-01-08T06:51:49.896Z,8.13
2019-01-08T06:54:39.654Z,8.08
2019-01-08T06:57:29.795Z,8.06
2019-01-08T07:00:19.572Z,8.04
2019-01-08T07:03:09.591Z,8.09
2019-01-08T07:06:01.319Z,8.10
2019-01-08T07:08:51.329Z,8.05
2019-01-08T07:11:41.485Z,8.05
2019-01-08T07:14:30.984Z,8.10
2019-01-08T07:17:20.677Z,8.13
2019-01-08T07:20:10.701Z,8.17
2019-01-08T07:23:00.470Z,8.18
2019-01-08T07:25:50.282Z,8.17
2019-01-08T07:28:40.286Z,8.21
2019-01-08T07:31:30.355Z,8.26
2019-01-08T07:34:20.523Z,8.26
2019-01-08T07:37:10.625Z,8.27
2019-01-08T07:40:00.358Z,8.33
2019-01-08T07:42:50.788Z,8.33
2019-01-08T07:45:40.554Z,8.36
2019-01-08T07:48:30.453Z,8.39
2019-01-08T07:51:20.711Z,8.38
2019-01-08T07:54:10.765Z,8.42
2019-01-08T07:57:00.664Z,8.45
2019-01-08T07:59:50.421Z,8.37
2019-01-08T08:02:40.255Z,8.39
2019-01-08T08:05:30.726Z,8.38
2019-01-08T08:08:21.868Z,8.35
2019-01-08T08:11:12.104Z,8.33
2019-01-08T08:14:02.235Z,8.30
2019-01-08T08:16:52.051Z,8.29
2019-01-08T08:19:42.232Z,8.29
2019-01-08T08:22:32.581Z,8.26
2019-01-08T08:25:22.287Z,8.26
2019-01-08T08:28:12.085Z,8.27
2019-01-08T08:31:02.144Z,8.33
2019-01-08T08:33:51.930Z,8.28
2019-01-08T08:36:42.190Z,8.29
2019-01-08T08:39:32.287Z,8.19
2019-01-08T08:42:22.453Z,8.17
2019-01-08T08:45:12.738Z,8.17
2019-01-08T08:48:02.534Z,8.16
2019-01-08T08:50:52.348Z,8.20
2019-01-08T08:53:41.915Z,8.19
2019-01-08T08:56:31.691Z,8.20
2019-01-08T08:59:21.782Z,8.19
2019-01-08T09:02:11.838Z,8.18
2019-01-08T09:05:01.670Z,8.05
2019-01-08T09:07:52.224Z,8.11
2019-01-08T09:10:42.421Z,8.06
2019-01-08T09:13:32.431Z,8.07
2019-01-08T09:16:22.101Z,8.06
2019-01-08T09:19:12.233Z,8.13
2019-01-08T09:22:02.008Z,8.17
2019-01-08T09:24:52.115Z,8.29
2019-01-08T09:27:42.505Z,8.31
2019-01-08T09:30:32.888Z,8.28
2019-01-08T09:33:23.281Z,8.27
2019-01-08T09:36:14.013Z,8.28
2019-01-08T09:39:04.842Z,8.33
2019-01-08T09:41:55.137Z,8.38
2019-01-08T09:44:44.817Z,8.34
2019-01-08T09:47:34.914Z,8.33
2019-01-08T09:50:24.714Z,8.30
2019-01-08T09:53:14.554Z,8.27
2019-01-08T09:56:04.504Z,8.36
2019-01-08T09:58:56.159Z,8.30
2019-01-08T10:01:47.096Z,8.30
2019-01-08T10:04:37.152Z,8.28
2019-01-08T10:07:27.699Z,8.30
2019-01-08T10:10:18.483Z,8.27
2019-01-08T10:13:08.487Z,8.35
2019-01-08T10:15:58.201Z,8.37
2019-01-08T10:18:48.242Z,8.41
2019-01-08T10:21:37.972Z,8.41
2019-01-08T10:24:27.780Z,8.49
2019-01-08T10:27:18.050Z,8.48
2019-01-08T10:30:10.177Z,8.49
2019-01-08T10:32:59.956Z,8.50
2019-01-08T10:35:53.256Z,8.51
2019-01-08T10:38:44.690Z,8.52
2019-01-08T10:41:40.084Z,8.61
2019-01-08T10:44:31.826Z,8.70
2019-01-08T10:47:24.512Z,8.70
2019-01-08T10:50:15.380Z,8.70
2019-01-08T10:53:07.599Z,8.74
2019-01-08T10:56:03.930Z,8.76
2019-01-08T10:58:54.158Z,8.85
2019-01-08T11:01:46.843Z,8.97
2019-01-08T11:04:37.973Z,9.17
2019-01-08T11:07:31.418Z,9.21
2019-01-08T11:10:25.016Z,9.29
2019-01-08T11:13:15.049Z,9.24
2019-01-08T11:16:05.841Z,9.21
2019-01-08T11:18:57.325Z,9.13
2019-01-08T11:21:47.623Z,9.09
2019-01-08T11:24:37.643Z,9.08
2019-01-08T11:27:27.909Z,8.84
2019-01-08T11:30:18.002Z,8.77
2019-01-08T11:33:07.463Z,8.61
2019-01-08T11:35:57.462Z,8.56
2019-01-08T11:38:47.257Z,8.44
2019-01-08T11:41:37.099Z,8.30
2019-01-08T11:44:26.972Z,8.24
2019-01-08T11:47:17.067Z,8.16
2019-01-08T11:50:07.397Z,8.17
2019-01-08T11:52:57.431Z,8.18
2019-01-08T11:55:47.573Z,8.16
2019-01-08T11:58:37.580Z,8.10
2019-01-08T12:01:27.514Z,8.10
2019-01-08T12:04:17.353Z,8.07
2019-01-08T12:07:07.251Z,8.08
2019-01-08T12:09:57.090Z,8.11
2019-01-08T12:12:46.947Z,8.16
2019-01-08T12:15:36.878Z,8.14
2019-01-08T12:18:27.481Z,8.07
2019-01-08T12:21:17.458Z,8.08
2019-01-08T12:24:07.593Z,8.15
2019-01-08T12:26:57.819Z,8.13
2019-01-08T12:29:48.543Z,8.13
2019-01-08T12:32:41.582Z,8.10
2019-01-08T12:35:38.262Z,8.15
2019-01-08T12:38:29.137Z,8.20
2019-01-08T12:41:25.612Z,8.25
2019-01-08T12:44:15.820Z,8.32
2019-01-08T12:47:06.048Z,8.34
2019-01-08T12:49:56.769Z,8.35
2019-01-08T12:52:48.103Z,8.41
2019-01-08T12:55:38.615Z,8.45
2019-01-08T12:58:31.370Z,8.50
2019-01-08T13:01:25.333Z,8.57
2019-01-08T13:04:19.545Z,8.56
2019-01-08T13:07:17.327Z,8.59
2019-01-08T13:10:15.776Z,8.60
2019-01-08T13:13:07.853Z,8.61
2019-01-08T13:15:58.100Z,8.69
2019-01-08T13:18:52.650Z,8.75
2019-01-08T13:21:48.880Z,8.83
2019-01-08T13:24:47.882Z,8.79
2019-01-08T13:27:39.705Z,8.86
2019-01-08T13:30:29.891Z,8.88
2019-01-08T13:33:20.370Z,8.93
2019-01-08T13:36:12.720Z,8.96
2019-01-08T13:39:06.000Z,8.85
2019-01-08T13:41:56.060Z,8.82
2019-01-08T13:44:45.852Z,8.80
2019-01-08T13:47:35.326Z,8.79
2019-01-08T13:50:24.917Z,8.71
2019-01-08T13:53:14.636Z,8.67
2019-01-08T13:56:04.232Z,8.66
2019-01-08T13:58:54.474Z,8.67
2019-01-08T14:01:44.262Z,8.65
2019-01-08T14:04:34.081Z,8.66
2019-01-08T14:07:24.188Z,8.63
2019-01-08T14:10:14.640Z,8.63
2019-01-08T14:13:04.757Z,8.61
2019-01-08T14:15:54.404Z,8.53
2019-01-08T14:18:44.166Z,8.56
2019-01-08T14:21:34.231Z,8.43
2019-01-08T14:24:28.115Z,8.42
2019-01-08T14:27:21.260Z,8.43
2019-01-08T14:30:19.219Z,8.33
2019-01-08T14:33:35.935Z,8.29
2019-01-08T14:36:32.788Z,8.32
2019-01-08T14:39:26.868Z,8.29
2019-01-08T14:42:31.064Z,8.25
2019-01-08T14:45:32.718Z,8.28
2019-01-08T14:48:31.854Z,8.30
2019-01-08T14:51:26.223Z,8.34
2019-01-08T14:55:01.216Z,8.36
2019-01-08T14:57:44.834Z,8.41
2019-01-08T15:00:35.024Z,8.46
2019-01-08T15:03:25.243Z,8.43
2019-01-08T15:06:15.335Z,8.36
2019-01-08T15:09:07.279Z,8.43
2019-01-08T15:11:56.571Z,8.39
2019-01-08T15:14:46.681Z,8.41
2019-01-08T15:17:36.531Z,8.41
2019-01-08T15:20:26.002Z,8.43
2019-01-08T15:23:15.422Z,8.43
2019-01-08T15:26:05.358Z,8.44
2019-01-08T15:28:55.596Z,8.43
2019-01-08T15:31:53.461Z,8.42
2019-01-08T15:35:19.288Z,8.47
2019-01-08T15:38:16.548Z,8.43
2019-01-08T15:41:09.778Z,8.47
2019-01-08T15:44:01.061Z,8.46
2019-01-08T15:46:50.895Z,8.45
2019-01-08T15:49:40.795Z,8.49
2019-01-08T15:52:31.185Z,8.52
2019-01-08T15:55:22.184Z,8.51
2019-01-08T15:58:14.349Z,8.52
2019-01-08T16:01:08.217Z,8.49
2019-01-08T16:03:58.711Z,8.48
2019-01-08T16:06:49.214Z,8.43
2019-01-08T16:09:39.191Z,8.46
2019-01-08T16:12:29.270Z,8.46
2019-01-08T16:15:19.302Z,8.44
2019-01-08T16:18:09.601Z,8.50
2019-01-08T16:20:59.302Z,8.51
2019-01-08T16:23:49.154Z,8.55
2019-01-08T16:26:38.946Z,8.56
2019-01-08T16:29:29.311Z,8.52
2019-01-08T16:32:20.301Z,8.53
2019-01-08T16:35:10.728Z,8.51
2019-01-08T16:38:00.792Z,8.47
2019-01-08T16:40:50.461Z,8.47
2019-01-08T16:43:40.292Z,8.47
2019-01-08T16:46:30.311Z,8.46
2019-01-08T16:49:19.935Z,8.35
2019-01-08T16:52:10.610Z,8.36
2019-01-08T16:55:00.910Z,8.32
2019-01-08T16:57:51.001Z,8.32
2019-01-08T17:00:41.489Z,8.34
2019-01-08T17:03:31.504Z,8.31
2019-01-08T17:06:21.520Z,8.30
2019-01-08T17:09:12.154Z,8.29
2019-01-08T17:12:02.123Z,8.20
2019-01-08T17:14:52.014Z,8.23
2019-01-08T17:17:41.765Z,8.18
2019-01-08T17:20:31.925Z,8.16
2019-01-08T17:23:21.869Z,8.14
2019-01-08T17:26:10.956Z,8.15
2019-01-08T17:29:01.123Z,8.10
2019-01-08T17:31:50.916Z,8.10
2019-01-08T17:34:41.363Z,8.08
2019-01-08T17:37:32.331Z,8.06
2019-01-08T17:40:22.397Z,8.08
2019-01-08T17:43:12.602Z,7.99
2019-01-08T17:46:02.162Z,7.94
2019-01-08T17:48:51.581Z,7.90
2019-01-08T17:51:41.267Z,7.76
2019-01-08T17:54:31.230Z,7.76
2019-01-08T17:57:20.666Z,7.74
2019-01-08T18:00:12.152Z,7.71
2019-01-08T18:03:02.250Z,7.73
2019-01-08T18:05:52.184Z,7.68
2019-01-08T18:08:42.472Z,7.66
2019-01-08T18:11:32.515Z,7.66
2019-01-08T18:14:22.603Z,7.64
2019-01-08T18:17:12.333Z,7.65
2019-01-08T18:20:01.830Z,7.59
2019-01-08T18:22:50.963Z,7.58
2019-01-08T18:25:40.367Z,7.54
2019-01-08T18:28:30.167Z,7.51
2019-01-08T18:31:19.605Z,7.51
2019-01-08T18:34:09.700Z,7.53
2019-01-08T18:36:59.536Z,7.59
2019-01-08T18:39:50.136Z,7.54
2019-01-08T18:42:41.171Z,7.45
2019-01-08T18:45:30.718Z,7.44
2019-01-08T18:48:20.660Z,7.45
2019-01-08T18:51:10.861Z,7.39
2019-01-08T18:54:00.357Z,7.45
2019-01-08T18:56:50.436Z,7.50
2019-01-08T18:59:41.194Z,7.49
2019-01-08T19:02:30.848Z,7.48
2019-01-08T19:05:20.483Z,7.53
2019-01-08T19:08:10.610Z,7.54
2019-01-08T19:11:00.446Z,7.52
2019-01-08T19:13:51.265Z,7.52
2019-01-08T19:16:43.043Z,7.54
2019-01-08T19:19:32.790Z,7.54
2019-01-08T19:22:22.653Z,7.51
2019-01-08T19:25:12.230Z,7.48
2019-01-08T19:28:01.924Z,7.50
2019-01-08T19:30:51.693Z,7.42
2019-01-08T19:33:41.795Z,7.43
2019-01-08T19:36:31.359Z,7.31
2019-01-08T19:39:20.547Z,7.23
2019-01-08T19:42:12.025Z,7.18
2019-01-08T19:45:01.996Z,7.18
2019-01-08T19:47:51.785Z,7.09
2019-01-08T19:50:41.989Z,7.10
2019-01-08T19:53:31.900Z,7.05
2019-01-08T19:56:21.561Z,7.02
2019-01-08T19:59:11.682Z,6.99
2019-01-08T20:02:01.778Z,6.97
2019-01-08T20:04:52.079Z,6.99
2019-01-08T20:07:41.798Z,6.88
2019-01-08T20:10:31.488Z,6.64
2019-01-08T20:13:20.926Z,6.51
2019-01-08T20:16:11.579Z,6.48
2019-01-08T20:19:01.800Z,6.36
2019-01-08T20:21:50.858Z,6.44
2019-01-08T20:24:40.842Z,6.47
2019-01-08T20:27:32.582Z,6.42
2019-01-08T20:30:22.444Z,6.39
2019-01-08T20:33:12.417Z,6.42
2019-01-08T20:36:02.582Z,6.49
2019-01-08T20:38:52.451Z,6.45
2019-01-08T20:41:42.311Z,6.47
2019-01-08T20:44:32.167Z,6.48
2019-01-08T20:47:23.240Z,6.52
2019-01-08T20:50:14.023Z,6.49
2019-01-08T20:53:03.883Z,6.50
2019-01-08T20:55:53.723Z,6.47
2019-01-08T20:58:43.630Z,6.49
2019-01-08T21:01:33.712Z,6.44
2019-01-08T21:04:23.535Z,6.42
2019-01-08T21:07:13.338Z,6.39
2019-01-08T21:10:02.997Z,6.37
2019-01-08T21:12:53.090Z,6.36
2019-01-08T21:15:43.072Z,6.36
2019-01-08T21:18:33.269Z,6.31
2019-01-08T21:21:23.444Z,6.29
2019-01-08T21:24:13.294Z,6.31
2019-01-08T21:27:03.102Z,6.26
2019-01-08T21:29:53.195Z,6.26
2019-01-08T21:32:42.806Z,6.24
2019-01-08T21:35:32.753Z,6.27
2019-01-08T21:38:22.698Z,6.25
2019-01-08T21:41:13.798Z,6.24
2019-01-08T21:44:03.886Z,6.13
2019-01-08T21:46:55.171Z,6.08
2019-01-08T21:49:45.241Z,6.07
2019-01-08T21:52:34.948Z,6.03
2019-01-08T21:55:24.875Z,6.08
2019-01-08T21:58:14.861Z,6.08
2019-01-08T22:01:05.119Z,6.03
2019-01-08T22:03:54.716Z,6.06
2019-01-08T22:06:46.356Z,6.06
2019-01-08T22:09:36.246Z,6.03
2019-01-08T22:12:26.474Z,6.00
2019-01-08T22:15:16.272Z,6.04
2019-01-08T22:18:08.001Z,6.00
2019-01-08T22:20:59.787Z,5.90
2019-01-08T22:23:49.783Z,5.88
2019-01-08T22:26:39.719Z,5.89
2019-01-08T22:29:29.778Z,5.92
2019-01-08T22:32:19.535Z,5.94
2019-01-08T22:35:09.850Z,5.93
2019-01-08T22:37:59.899Z,5.88
2019-01-08T22:40:49.986Z,5.87
2019-01-08T22:43:39.992Z,5.86
2019-01-08T22:46:29.930Z,5.81
2019-01-08T22:49:19.759Z,5.75
2019-01-08T22:52:10.047Z,5.75
2019-01-08T22:54:59.697Z,5.70
2019-01-08T22:57:49.682Z,5.62
2019-01-08T23:00:57.388Z,5.60
2019-01-08T23:03:47.479Z,5.52
2019-01-08T23:06:37.656Z,5.45
2019-01-08T23:09:27.714Z,5.45
2019-01-08T23:12:17.630Z,5.45
2019-01-08T23:15:07.311Z,5.45
2019-01-08T23:17:57.578Z,5.41
2019-01-08T23:20:47.545Z,5.32
2019-01-08T23:23:37.717Z,5.17
2019-01-08T23:26:27.586Z,5.19
2019-01-08T23:29:17.739Z,5.09
2019-01-08T23:32:07.916Z,4.99
2019-01-08T23:34:57.853Z,4.89
2019-01-08T23:37:47.921Z,4.83
2019-01-08T23:40:37.635Z,4.75
2019-01-08T23:43:27.542Z,4.72
2019-01-08T23:46:18.292Z,4.67
2019-01-08T23:49:08.118Z,4.62
2019-01-08T23:52:18.323Z,4.59
2019-01-08T23:55:08.387Z,4.67
2019-01-08T23:58:02.009Z,4.70
